createdAt,value
2023-03-14T00:01:25.351Z,11.13
2023-03-14T00:03:58.056Z,11.26
2023-03-14T00:06:32.338Z,11.13
2023-03-14T00:09:04.856Z,11.23
2023-03-14T00:11:37.364Z,11.16
2023-03-14T00:14:09.996Z,11.12
2023-03-14T00:16:42.541Z,11.12
2023-03-14T00:19:15.618Z,11.04
2023-03-14T00:21:48.266Z,11.05
2023-03-14T00:24:20.847Z,10.92
2023-03-14T00:26:53.416Z,10.91
2023-03-14T00:29:25.911Z,10.89
2023-03-14T00:31:58.492Z,10.91
2023-03-14T00:34:34.785Z,10.79
2023-03-14T00:37:07.345Z,10.78
2023-03-14T00:39:39.940Z,10.84
2023-03-14T00:42:12.532Z,10.89
2023-03-14T00:44:45.110Z,10.93
2023-03-14T00:47:17.645Z,10.92
2023-03-14T00:49:50.179Z,10.92
2023-03-14T00:52:22.781Z,10.93
2023-03-14T00:54:55.368Z,10.89
2023-03-14T00:57:28.048Z,10.83
2023-03-14T01:00:00.505Z,10.81
2023-03-14T01:02:33.077Z,10.88
2023-03-14T01:05:06.072Z,10.78
2023-03-14T01:07:38.793Z,10.77
2023-03-14T01:10:11.679Z,10.87
2023-03-14T01:12:44.225Z,10.76
2023-03-14T01:15:16.859Z,10.96
2023-03-14T01:17:49.499Z,11.02
2023-03-14T01:20:22.088Z,10.94
2023-03-14T01:22:54.893Z,10.76
2023-03-14T01:25:27.698Z,10.60
2023-03-14T01:28:01.732Z,10.70
2023-03-14T01:30:34.338Z,10.82
2023-03-14T01:33:07.359Z,10.86
2023-03-14T01:35:39.883Z,10.85
2023-03-14T01:38:12.437Z,10.82
2023-03-14T01:40:45.689Z,10.72
2023-03-14T01:43:21.705Z,10.73
2023-03-14T01:46:06.264Z,10.69
2023-03-14T01:48:45.926Z,10.72
2023-03-14T01:51:41.812Z,10.70
2023-03-14T01:54:34.576Z,10.55
2023-03-14T01:57:32.828Z,10.71
2023-03-14T02:00:14.358Z,10.55
2023-03-14T02:02:52.618Z,10.76
2023-03-14T02:05:31.322Z,10.74
2023-03-14T02:08:10.512Z,10.54
2023-03-14T02:10:49.994Z,10.67
2023-03-14T02:13:23.411Z,10.78
2023-03-14T02:15:56.063Z,10.66
2023-03-14T02:18:28.762Z,10.71
2023-03-14T02:21:25.503Z,10.56
2023-03-14T02:24:09.840Z,10.63
2023-03-14T02:27:12.766Z,10.55
2023-03-14T02:29:53.408Z,10.65
2023-03-14T02:32:30.971Z,10.59
2023-03-14T02:35:14.366Z,10.73
2023-03-14T02:37:49.215Z,10.31
2023-03-14T02:40:22.713Z,10.32
2023-03-14T02:42:55.523Z,10.21
2023-03-14T02:45:57.387Z,10.43
2023-03-14T02:48:37.107Z,10.18
2023-03-14T02:51:10.255Z,10.47
2023-03-14T02:53:43.697Z,10.69
2023-03-14T02:56:16.353Z,10.66
2023-03-14T02:58:48.915Z,10.45
2023-03-14T03:01:21.460Z,10.50
2023-03-14T03:03:54.324Z,10.44
2023-03-14T03:06:27.418Z,10.64
2023-03-14T03:09:00.004Z,10.57
2023-03-14T03:11:32.852Z,10.62
2023-03-14T03:14:05.430Z,10.48
2023-03-14T03:16:38.070Z,10.59
2023-03-14T03:19:10.605Z,10.59
2023-03-14T03:21:43.131Z,10.65
2023-03-14T03:24:15.761Z,10.68
2023-03-14T03:26:48.371Z,10.48
2023-03-14T03:29:20.969Z,10.53
2023-03-14T03:31:54.092Z,10.60
2023-03-14T03:34:28.841Z,10.49
2023-03-14T03:37:01.387Z,10.63
2023-03-14T03:39:33.887Z,10.63
2023-03-14T03:42:06.380Z,10.42
2023-03-14T03:44:39.055Z,10.41
2023-03-14T03:47:11.752Z,10.57
2023-03-14T03:49:44.349Z,10.56
2023-03-14T03:52:17.124Z,10.60
2023-03-14T03:54:49.645Z,10.45
2023-03-14T03:57:22.235Z,10.48
2023-03-14T03:59:54.756Z,10.47
2023-03-14T04:02:27.491Z,10.40
2023-03-14T04:05:00.180Z,10.37
2023-03-14T04:07:34.240Z,10.30
2023-03-14T04:10:07.081Z,10.31
2023-03-14T04:12:39.704Z,10.28
2023-03-14T04:15:12.523Z,10.19
2023-03-14T04:17:45.282Z,10.17
2023-03-14T04:20:17.982Z,9.97
2023-03-14T04:22:50.524Z,9.92
2023-03-14T04:25:23.139Z,10.01
2023-03-14T04:27:55.694Z,10.10
2023-03-14T04:30:28.651Z,9.92
2023-03-14T04:33:01.329Z,9.89
2023-03-14T04:35:34.551Z,10.04
2023-03-14T04:38:07.143Z,10.08
2023-03-14T04:40:44.723Z,9.77
2023-03-14T04:43:17.203Z,9.95
2023-03-14T04:45:49.898Z,9.92
2023-03-14T04:48:23.294Z,9.74
2023-03-14T04:50:56.894Z,9.80
2023-03-14T04:53:31.839Z,9.72
2023-03-14T04:56:05.855Z,9.44
2023-03-14T04:58:38.402Z,9.61
2023-03-14T05:01:11.276Z,9.41
2023-03-14T05:03:43.800Z,9.56
2023-03-14T05:06:16.371Z,9.48
2023-03-14T05:08:48.884Z,9.30
2023-03-14T05:11:21.441Z,9.24
2023-03-14T05:13:54.035Z,9.42
2023-03-14T05:16:26.724Z,9.24
2023-03-14T05:18:59.336Z,9.09
2023-03-14T05:21:31.893Z,9.25
2023-03-14T05:24:04.789Z,9.21
2023-03-14T05:26:37.340Z,9.31
2023-03-14T05:29:09.805Z,9.18
2023-03-14T05:31:42.396Z,9.33
2023-03-14T05:34:14.958Z,9.34
2023-03-14T05:36:47.841Z,9.46
2023-03-14T05:39:20.344Z,9.05
2023-03-14T05:41:54.876Z,9.03
2023-03-14T05:44:27.382Z,9.38
2023-03-14T05:47:00.013Z,9.20
2023-03-14T05:49:32.898Z,9.23
2023-03-14T05:52:05.575Z,9.41
2023-03-14T05:54:38.163Z,9.37
2023-03-14T05:57:10.951Z,9.23
2023-03-14T05:59:43.488Z,9.20
2023-03-14T06:02:16.092Z,9.31
2023-03-14T06:04:48.718Z,9.16
2023-03-14T06:07:21.483Z,9.28
2023-03-14T06:09:54.024Z,9.36
2023-03-14T06:12:26.670Z,9.17
2023-03-14T06:14:59.153Z,9.26
2023-03-14T06:17:31.674Z,9.39
2023-03-14T06:20:04.642Z,9.31
2023-03-14T06:22:37.406Z,9.22
2023-03-14T06:25:10.541Z,9.30
2023-03-14T06:27:43.080Z,9.27
2023-03-14T06:30:15.972Z,9.17
2023-03-14T06:32:48.600Z,9.33
2023-03-14T06:35:21.137Z,9.34
2023-03-14T06:37:53.709Z,9.41
2023-03-14T06:40:26.358Z,9.41
2023-03-14T06:42:58.881Z,9.40
2023-03-14T06:45:31.467Z,9.55
2023-03-14T06:48:05.380Z,9.50
2023-03-14T06:50:37.926Z,9.43
2023-03-14T06:53:10.566Z,9.45
2023-03-14T06:55:44.244Z,9.63
2023-03-14T06:58:17.342Z,9.73
2023-03-14T07:00:49.832Z,9.82
2023-03-14T07:03:22.418Z,9.82
2023-03-14T07:05:55.187Z,9.71
2023-03-14T07:08:27.711Z,9.76
2023-03-14T07:11:00.291Z,9.78
2023-03-14T07:13:32.878Z,9.87
2023-03-14T07:16:06.791Z,10.07
2023-03-14T07:18:39.474Z,9.89
2023-03-14T07:21:12.167Z,9.72
2023-03-14T07:23:44.678Z,9.68
2023-03-14T07:26:17.425Z,9.72
2023-03-14T07:28:50.021Z,9.59
2023-03-14T07:31:22.681Z,8.72
2023-03-14T07:33:55.221Z,8.46
2023-03-14T07:36:27.764Z,7.94
2023-03-14T07:39:00.220Z,7.74
2023-03-14T07:41:33.652Z,7.27
2023-03-14T07:44:06.207Z,7.31
2023-03-14T07:46:38.894Z,7.19
2023-03-14T07:49:11.544Z,7.13
2023-03-14T07:51:45.092Z,7.05
2023-03-14T07:54:19.650Z,7.01
2023-03-14T07:56:53.409Z,6.85
2023-03-14T07:59:25.932Z,6.95
2023-03-14T08:01:58.612Z,6.82
2023-03-14T08:04:31.138Z,6.87
2023-03-14T08:07:03.688Z,6.87
2023-03-14T08:09:36.278Z,7.00
2023-03-14T08:12:09.215Z,7.09
2023-03-14T08:14:41.675Z,7.13
2023-03-14T08:17:14.162Z,7.08
2023-03-14T08:19:46.630Z,6.86
2023-03-14T08:22:20.223Z,6.74
2023-03-14T08:24:52.963Z,6.74
2023-03-14T08:27:25.611Z,6.78
2023-03-14T08:29:58.576Z,6.70
2023-03-14T08:32:31.854Z,7.02
2023-03-14T08:35:06.501Z,6.77
2023-03-14T08:37:39.061Z,7.12
2023-03-14T08:40:12.764Z,7.05
2023-03-14T08:42:46.428Z,6.83
2023-03-14T08:45:19.102Z,6.91
2023-03-14T08:47:51.671Z,7.09
2023-03-14T08:50:25.165Z,6.96
2023-03-14T08:53:00.829Z,6.95
2023-03-14T08:55:33.701Z,6.85
2023-03-14T08:58:06.241Z,6.82
2023-03-14T09:00:38.925Z,7.03
2023-03-14T09:03:11.540Z,7.15
2023-03-14T09:05:44.188Z,7.50
2023-03-14T09:08:16.754Z,6.98
2023-03-14T09:10:49.330Z,7.23
2023-03-14T09:13:21.868Z,6.98
2023-03-14T09:15:58.459Z,7.18
2023-03-14T09:18:31.194Z,7.42
2023-03-14T09:21:04.134Z,7.18
2023-03-14T09:23:36.700Z,7.47
2023-03-14T09:26:09.281Z,7.15
2023-03-14T09:28:41.755Z,7.62
2023-03-14T09:31:15.070Z,7.40
2023-03-14T09:33:47.655Z,7.01
2023-03-14T09:36:20.180Z,6.74
2023-03-14T09:38:52.757Z,6.63
2023-03-14T09:41:25.210Z,6.71
2023-03-14T09:44:07.346Z,5.99
2023-03-14T09:46:43.803Z,5.91
2023-03-14T09:49:28.406Z,5.90
2023-03-14T09:52:12.580Z,5.83
2023-03-14T09:55:08.478Z,5.62
2023-03-14T09:57:43.952Z,5.75
2023-03-14T10:00:24.252Z,5.52
2023-03-14T10:03:25.715Z,5.60
2023-03-14T10:05:58.826Z,5.69
2023-03-14T10:08:31.368Z,6.10
2023-03-14T10:11:04.110Z,6.24
2023-03-14T10:14:07.950Z,6.45
2023-03-14T10:16:47.067Z,6.90
2023-03-14T10:19:19.778Z,6.70
2023-03-14T10:21:55.155Z,6.83
2023-03-14T10:24:32.951Z,6.37
2023-03-14T10:27:20.069Z,6.57
2023-03-14T10:30:09.036Z,6.76
2023-03-14T10:32:47.273Z,6.74
2023-03-14T10:35:23.893Z,6.83
2023-03-14T10:38:05.152Z,6.69
2023-03-14T10:40:42.514Z,6.67
2023-03-14T10:43:22.985Z,6.57
2023-03-14T10:45:59.869Z,7.12
2023-03-14T10:48:38.403Z,6.68
2023-03-14T10:51:25.214Z,6.79
2023-03-14T10:54:19.983Z,6.78
2023-03-14T10:57:01.660Z,6.43
2023-03-14T10:59:42.270Z,5.51
2023-03-14T11:02:32.786Z,5.42
2023-03-14T11:05:32.854Z,5.44
2023-03-14T11:08:45.569Z,5.54
2023-03-14T11:11:27.953Z,5.61
2023-03-14T11:14:03.590Z,5.81
2023-03-14T11:17:01.225Z,6.07
2023-03-14T11:19:47.337Z,5.70
2023-03-14T11:22:32.441Z,5.83
2023-03-14T11:25:22.617Z,6.18
2023-03-14T11:28:30.799Z,6.42
2023-03-14T11:31:06.266Z,6.26
2023-03-14T11:34:01.926Z,6.06
2023-03-14T11:36:42.869Z,6.15
2023-03-14T11:39:21.180Z,5.58
2023-03-14T11:41:59.334Z,5.74
2023-03-14T11:44:39.165Z,4.95
2023-03-14T11:47:30.704Z,4.84
2023-03-14T11:50:16.262Z,5.14
2023-03-14T11:52:59.824Z,5.38
2023-03-14T11:55:39.338Z,5.23
2023-03-14T11:58:21.283Z,5.36
2023-03-14T12:00:57.597Z,5.94
2023-03-14T12:03:45.504Z,5.67
2023-03-14T12:06:26.851Z,5.99
2023-03-14T12:09:02.753Z,5.99
2023-03-14T12:12:03.502Z,6.15
2023-03-14T12:14:45.437Z,6.18
2023-03-14T12:17:24.661Z,6.00
2023-03-14T12:20:15.504Z,6.44
2023-03-14T12:22:55.204Z,6.77
2023-03-14T12:25:32.770Z,6.58
2023-03-14T12:28:20.167Z,6.30
2023-03-14T12:30:52.883Z,6.47
2023-03-14T12:33:31.518Z,6.43
2023-03-14T12:36:12.088Z,6.50
2023-03-14T12:38:56.641Z,5.92
2023-03-14T12:41:45.336Z,6.63
2023-03-14T12:44:47.921Z,6.66
2023-03-14T12:47:20.502Z,6.92
2023-03-14T12:49:58.365Z,6.60
2023-03-14T12:53:13.487Z,6.59
2023-03-14T12:56:18.640Z,6.72
2023-03-14T12:59:23.460Z,6.72
2023-03-14T13:02:03.336Z,6.77
2023-03-14T13:04:47.686Z,7.01
2023-03-14T13:07:40.306Z,6.99
2023-03-14T13:10:12.724Z,7.33
2023-03-14T13:13:04.001Z,7.59
2023-03-14T13:15:42.720Z,7.56
2023-03-14T13:18:20.469Z,7.25
2023-03-14T13:20:57.793Z,7.43
2023-03-14T13:23:34.448Z,7.61
2023-03-14T13:26:16.015Z,7.43
2023-03-14T13:28:48.564Z,7.34
2023-03-14T13:31:27.390Z,7.01
2023-03-14T13:34:11.077Z,7.22
2023-03-14T13:36:43.762Z,7.38
2023-03-14T13:39:29.980Z,7.32
2023-03-14T13:42:03.374Z,7.28
2023-03-14T13:44:40.691Z,7.40
2023-03-14T13:47:20.930Z,7.25
2023-03-14T13:49:54.895Z,7.50
2023-03-14T13:52:36.346Z,7.41
2023-03-14T13:55:19.695Z,7.52
2023-03-14T13:57:58.222Z,7.63
2023-03-14T14:00:30.864Z,7.75
2023-03-14T14:03:03.863Z,7.31
2023-03-14T14:05:38.527Z,7.74
2023-03-14T14:08:14.008Z,7.75
2023-03-14T14:10:50.178Z,7.27
2023-03-14T14:13:25.742Z,7.40
2023-03-14T14:16:03.130Z,7.62
2023-03-14T14:18:36.898Z,7.39
2023-03-14T14:21:11.484Z,7.27
2023-03-14T14:23:44.535Z,7.93
2023-03-14T14:26:21.241Z,7.68
2023-03-14T14:29:06.403Z,7.50
2023-03-14T14:31:38.997Z,7.47
2023-03-14T14:34:20.884Z,7.53
2023-03-14T14:36:53.577Z,7.34
2023-03-14T14:39:29.956Z,7.43
2023-03-14T14:42:02.635Z,7.07
2023-03-14T14:44:37.359Z,7.34
2023-03-14T14:47:20.980Z,7.20
2023-03-14T14:49:59.502Z,6.87
2023-03-14T14:52:47.278Z,7.10
2023-03-14T14:55:21.255Z,6.94
2023-03-14T14:57:57.613Z,7.10
2023-03-14T15:00:31.266Z,6.82
2023-03-14T15:03:04.164Z,6.74
2023-03-14T15:05:37.970Z,6.75
2023-03-14T15:08:14.522Z,6.74
2023-03-14T15:10:47.072Z,6.68
2023-03-14T15:13:19.632Z,6.85
2023-03-14T15:15:57.100Z,6.94
2023-03-14T15:18:31.492Z,7.11
2023-03-14T15:21:04.525Z,6.95
2023-03-14T15:23:37.632Z,6.55
2023-03-14T15:26:17.153Z,6.65
2023-03-14T15:28:50.172Z,6.86
2023-03-14T15:31:22.895Z,6.54
2023-03-14T15:33:55.467Z,6.33
2023-03-14T15:36:35.003Z,6.22
2023-03-14T15:39:08.416Z,6.26
2023-03-14T15:41:41.077Z,6.20
2023-03-14T15:44:13.637Z,6.17
2023-03-14T15:46:46.202Z,6.22
2023-03-14T15:49:18.772Z,6.21
2023-03-14T15:51:51.323Z,6.29
2023-03-14T15:54:23.901Z,6.15
2023-03-14T15:56:57.323Z,5.79
2023-03-14T15:59:30.131Z,5.99
2023-03-14T16:02:02.686Z,6.09
2023-03-14T16:04:35.483Z,5.69
2023-03-14T16:07:08.148Z,5.76
2023-03-14T16:09:40.707Z,5.72
2023-03-14T16:12:13.248Z,5.59
2023-03-14T16:14:48.598Z,5.83
2023-03-14T16:17:21.365Z,5.89
2023-03-14T16:19:53.956Z,5.67
2023-03-14T16:22:27.264Z,5.87
2023-03-14T16:24:59.778Z,5.82
2023-03-14T16:27:33.023Z,5.89
2023-03-14T16:30:06.898Z,5.77
2023-03-14T16:32:39.536Z,5.77
2023-03-14T16:35:12.212Z,5.70
2023-03-14T16:37:44.719Z,5.74
2023-03-14T16:40:17.352Z,5.60
2023-03-14T16:43:14.563Z,5.51
2023-03-14T16:45:43.163Z,5.66
2023-03-14T16:48:15.721Z,5.44
2023-03-14T16:50:51.260Z,5.50
2023-03-14T16:53:25.123Z,5.72
2023-03-14T16:56:00.266Z,5.57
2023-03-14T16:58:32.912Z,5.54
2023-03-14T17:01:18.418Z,5.53
2023-03-14T17:03:52.067Z,5.27
2023-03-14T17:06:28.202Z,5.41
2023-03-14T17:09:03.497Z,5.51
2023-03-14T17:11:36.885Z,5.13
2023-03-14T17:14:09.384Z,5.45
2023-03-14T17:16:41.919Z,5.15
2023-03-14T17:19:14.469Z,5.55
2023-03-14T17:21:47.054Z,5.45
2023-03-14T17:24:19.944Z,5.18
2023-03-14T17:26:52.476Z,5.24
2023-03-14T17:29:25.024Z,5.27
2023-03-14T17:31:57.602Z,5.38
2023-03-14T17:34:30.178Z,5.20
2023-03-14T17:37:02.744Z,5.20
2023-03-14T17:39:35.669Z,5.12
2023-03-14T17:42:08.459Z,5.15
2023-03-14T17:44:41.806Z,5.02
2023-03-14T17:47:14.419Z,5.00
2023-03-14T17:49:46.958Z,5.06
2023-03-14T17:52:19.938Z,5.00
2023-03-14T17:54:52.409Z,4.73
2023-03-14T17:57:25.048Z,4.82
2023-03-14T17:59:57.611Z,4.97
2023-03-14T18:02:30.235Z,4.86
2023-03-14T18:05:03.677Z,4.80
2023-03-14T18:07:38.467Z,4.76
2023-03-14T18:10:11.993Z,4.79
2023-03-14T18:12:44.737Z,4.67
2023-03-14T18:15:17.316Z,4.58
2023-03-14T18:17:49.918Z,4.61
2023-03-14T18:20:22.524Z,4.45
2023-03-14T18:22:56.087Z,4.57
2023-03-14T18:25:29.048Z,4.55
2023-03-14T18:28:01.593Z,4.33
2023-03-14T18:30:34.076Z,4.31
2023-03-14T18:33:06.702Z,4.25
2023-03-14T18:35:39.365Z,4.24
2023-03-14T18:38:11.847Z,4.19
2023-03-14T18:40:44.411Z,4.10
2023-03-14T18:43:16.869Z,4.05
2023-03-14T18:45:49.372Z,3.95
2023-03-14T18:48:24.984Z,3.75
2023-03-14T18:50:59.042Z,3.67
2023-03-14T18:53:35.692Z,3.63
2023-03-14T18:56:08.798Z,3.54
2023-03-14T18:58:41.684Z,3.51
2023-03-14T19:01:17.471Z,3.52
2023-03-14T19:03:50.084Z,3.48
2023-03-14T19:06:24.865Z,3.39
2023-03-14T19:08:57.368Z,3.30
2023-03-14T19:11:30.001Z,3.18
2023-03-14T19:14:03.778Z,3.07
2023-03-14T19:16:36.515Z,2.90
2023-03-14T19:19:09.058Z,2.91
2023-03-14T19:21:41.688Z,2.78
2023-03-14T19:24:19.690Z,2.73
2023-03-14T19:26:54.235Z,2.68
2023-03-14T19:29:27.365Z,2.68
2023-03-14T19:31:59.978Z,2.62
2023-03-14T19:34:32.542Z,2.55
2023-03-14T19:37:05.074Z,2.43
2023-03-14T19:39:37.772Z,2.40
2023-03-14T19:42:10.317Z,2.37
2023-03-14T19:44:42.979Z,2.34
2023-03-14T19:47:15.464Z,2.34
2023-03-14T19:49:49.012Z,2.32
2023-03-14T19:52:21.804Z,2.30
2023-03-14T19:54:54.775Z,2.27
2023-03-14T19:57:27.284Z,2.23
2023-03-14T19:59:59.807Z,2.24
2023-03-14T20:02:32.572Z,2.18
2023-03-14T20:05:08.183Z,2.19
2023-03-14T20:07:41.835Z,2.13
2023-03-14T20:10:22.628Z,2.10
2023-03-14T20:13:09.099Z,2.00
2023-03-14T20:15:44.781Z,2.00
2023-03-14T20:18:17.362Z,1.87
2023-03-14T20:20:50.465Z,1.92
2023-03-14T20:23:23.117Z,1.85
2023-03-14T20:25:58.833Z,1.75
2023-03-14T20:28:32.052Z,1.81
2023-03-14T20:31:07.770Z,1.92
2023-03-14T20:33:42.517Z,1.84
2023-03-14T20:36:15.229Z,1.91
2023-03-14T20:38:47.754Z,1.90
2023-03-14T20:41:20.369Z,1.90
2023-03-14T20:43:53.079Z,1.93
2023-03-14T20:46:25.672Z,1.93
2023-03-14T20:48:58.250Z,1.94
2023-03-14T20:51:30.877Z,1.85
2023-03-14T20:54:03.737Z,1.88
2023-03-14T20:56:36.322Z,1.99
2023-03-14T20:59:09.098Z,1.95
2023-03-14T21:04:31.830Z,2.27
2023-03-14T21:07:04.369Z,2.25
2023-03-14T21:09:36.908Z,2.39
2023-03-14T21:12:09.381Z,2.31
2023-03-14T21:14:42.016Z,2.37
2023-03-14T21:17:14.529Z,2.43
2023-03-14T21:19:46.999Z,2.53
2023-03-14T21:22:19.470Z,2.30
2023-03-14T21:24:56.360Z,2.45
2023-03-14T21:27:28.844Z,2.37
2023-03-14T21:30:01.312Z,2.19
2023-03-14T21:32:34.168Z,2.21
2023-03-14T21:35:07.153Z,2.14
2023-03-14T21:37:39.736Z,2.21
2023-03-14T21:40:14.432Z,2.22
2023-03-14T21:42:47.121Z,2.29
2023-03-14T21:45:27.623Z,2.36
2023-03-14T21:48:02.332Z,2.42
2023-03-14T21:50:34.847Z,2.36
2023-03-14T21:53:07.426Z,2.44
2023-03-14T21:55:44.356Z,2.51
2023-03-14T21:58:17.127Z,2.56
2023-03-14T22:00:50.050Z,2.51
2023-03-14T22:03:25.310Z,2.54
2023-03-14T22:05:57.817Z,2.53
2023-03-14T22:08:30.670Z,2.43
2023-03-14T22:11:07.598Z,2.66
2023-03-14T22:13:40.382Z,2.53
2023-03-14T22:16:13.184Z,2.67
2023-03-14T22:18:46.191Z,2.59
2023-03-14T22:21:18.735Z,2.71
2023-03-14T22:23:51.205Z,2.69
2023-03-14T22:26:23.708Z,2.66
2023-03-14T22:28:56.181Z,2.86
2023-03-14T22:31:28.998Z,2.85
2023-03-14T22:34:01.544Z,2.79
2023-03-14T22:36:34.056Z,2.91
2023-03-14T22:39:06.818Z,2.98
2023-03-14T22:41:39.325Z,2.97
2023-03-14T22:44:11.795Z,3.00
2023-03-14T22:46:44.343Z,3.21
2023-03-14T22:49:17.955Z,3.25
2023-03-14T22:51:50.445Z,3.12
2023-03-14T22:54:22.992Z,3.26
2023-03-14T22:56:55.615Z,3.35
2023-03-14T22:59:28.189Z,2.91
2023-03-14T23:02:00.737Z,2.69
2023-03-14T23:04:33.363Z,2.39
2023-03-14T23:07:05.930Z,2.16
2023-03-14T23:09:39.680Z,2.03
2023-03-14T23:12:17.424Z,1.58
2023-03-14T23:14:49.898Z,1.50
2023-03-14T23:17:25.416Z,1.35
2023-03-14T23:19:59.288Z,1.44
2023-03-14T23:22:33.443Z,1.63
2023-03-14T23:25:06.848Z,1.58
2023-03-14T23:27:39.361Z,1.78
2023-03-14T23:30:17.108Z,1.75
2023-03-14T23:32:49.801Z,1.73
2023-03-14T23:35:22.384Z,1.79
2023-03-14T23:37:54.894Z,1.80
2023-03-14T23:40:27.416Z,1.96
2023-03-14T23:42:59.890Z,1.82
2023-03-14T23:45:32.356Z,1.87
2023-03-14T23:48:05.724Z,1.93
2023-03-14T23:50:38.255Z,1.89
2023-03-14T23:53:10.743Z,1.75
2023-03-14T23:55:43.399Z,1.96
2023-03-14T23:58:15.912Z,2.01
